createdAt,value
2022-11-24T00:01:37.572Z,8.30
2022-11-24T00:05:39.321Z,8.20
2022-11-24T00:09:40.927Z,8.20
2022-11-24T00:13:42.793Z,8.20
2022-11-24T00:17:44.389Z,8.30
2022-11-24T00:21:46.053Z,8.30
2022-11-24T00:25:47.615Z,8.30
2022-11-24T00:29:49.254Z,8.30
2022-11-24T00:33:51.741Z,8.30
2022-11-24T00:37:55.204Z,8.20
2022-11-24T00:41:56.971Z,8.20
2022-11-24T00:45:58.603Z,8.20
2022-11-24T00:50:00.312Z,8.20
2022-11-24T00:54:02.268Z,8.20
2022-11-24T00:58:03.828Z,8.20
2022-11-24T01:02:05.510Z,8.20
2022-11-24T01:06:08.965Z,8.20
2022-11-24T01:10:10.690Z,8.10
2022-11-24T01:14:12.263Z,8.20
2022-11-24T01:18:13.892Z,8.10
2022-11-24T01:22:15.587Z,8.20
2022-11-24T01:26:18.430Z,8.20
2022-11-24T01:30:22.019Z,8.10
2022-11-24T01:34:23.643Z,8.20
2022-11-24T01:38:26.438Z,8.20
2022-11-24T01:42:36.695Z,8.20
2022-11-24T01:46:45.634Z,8.20
2022-11-24T01:50:48.755Z,8.20
2022-11-24T01:54:53.330Z,8.30
2022-11-24T01:58:57.735Z,8.30
2022-11-24T02:02:59.658Z,8.20
2022-11-24T02:07:05.198Z,8.20
2022-11-24T02:11:08.554Z,8.30
2022-11-24T02:15:11.793Z,8.20
2022-11-24T02:19:18.333Z,8.30
2022-11-24T02:23:24.722Z,8.20
2022-11-24T02:27:26.346Z,8.20
2022-11-24T02:31:28.059Z,8.20
2022-11-24T02:35:29.732Z,8.20
2022-11-24T02:39:31.334Z,8.20
2022-11-24T02:43:34.887Z,8.20
2022-11-24T02:47:36.501Z,8.20
2022-11-24T02:51:38.124Z,8.20
2022-11-24T02:55:39.747Z,8.30
2022-11-24T02:59:41.334Z,8.30
2022-11-24T03:03:42.916Z,8.30
2022-11-24T03:07:44.592Z,8.30
2022-11-24T03:11:46.529Z,8.20
2022-11-24T03:15:48.171Z,8.30
2022-11-24T03:19:49.841Z,8.20
2022-11-24T03:23:51.960Z,8.20
2022-11-24T03:27:55.495Z,8.30
2022-11-24T03:31:57.053Z,8.40
2022-11-24T03:35:58.711Z,8.30
2022-11-24T03:40:00.322Z,8.40
2022-11-24T03:44:01.964Z,8.40
2022-11-24T03:48:04.044Z,8.40
2022-11-24T03:52:08.200Z,8.40
2022-11-24T03:56:10.081Z,8.50
2022-11-24T04:00:12.460Z,8.50
2022-11-24T04:04:14.080Z,8.50
2022-11-24T04:08:15.971Z,8.50
2022-11-24T04:12:36.136Z,8.60
2022-11-24T04:16:37.748Z,8.60
2022-11-24T04:20:40.162Z,8.60
2022-11-24T04:24:41.802Z,8.60
2022-11-24T04:28:43.399Z,8.50
2022-11-24T04:32:45.278Z,8.60
2022-11-24T04:36:46.879Z,8.50
2022-11-24T04:40:48.658Z,8.50
2022-11-24T04:44:50.270Z,8.60
2022-11-24T04:48:51.891Z,8.60
2022-11-24T04:52:53.568Z,8.50
2022-11-24T04:56:55.124Z,8.50
2022-11-24T05:00:56.756Z,8.60
2022-11-24T05:04:58.386Z,8.50
2022-11-24T05:09:00.143Z,8.60
2022-11-24T05:13:03.105Z,8.60
2022-11-24T05:17:04.711Z,8.60
2022-11-24T05:21:06.710Z,8.60
2022-11-24T05:25:08.441Z,8.60
2022-11-24T05:29:10.068Z,8.50
2022-11-24T05:33:17.017Z,8.30
2022-11-24T05:37:18.671Z,8.10
2022-11-24T05:41:20.314Z,8.00
2022-11-24T05:45:22.103Z,8.00
2022-11-24T05:49:23.690Z,7.90
2022-11-24T05:53:26.865Z,7.90
2022-11-24T05:57:28.495Z,7.90
2022-11-24T06:01:30.095Z,7.80
2022-11-24T06:05:31.812Z,7.90
2022-11-24T06:09:35.423Z,7.80
2022-11-24T06:13:37.052Z,7.80
2022-11-24T06:17:38.918Z,7.70
2022-11-24T06:21:40.581Z,7.70
2022-11-24T06:25:42.175Z,7.70
2022-11-24T06:29:44.266Z,7.70
2022-11-24T06:33:46.030Z,7.70
2022-11-24T06:37:47.617Z,7.70
2022-11-24T06:41:52.460Z,7.70
2022-11-24T06:45:54.108Z,7.70
2022-11-24T06:49:55.853Z,7.70
2022-11-24T06:53:57.805Z,7.70
2022-11-24T06:57:59.756Z,7.70
2022-11-24T07:02:01.426Z,7.60
2022-11-24T07:06:03.021Z,7.50
2022-11-24T07:10:07.247Z,7.50
2022-11-24T07:14:09.394Z,7.40
2022-11-24T07:18:11.347Z,7.40
2022-11-24T07:22:13.218Z,7.30
2022-11-24T07:26:19.014Z,7.40
2022-11-24T07:30:20.855Z,7.40
2022-11-24T07:34:22.820Z,7.30
2022-11-24T07:38:24.922Z,7.40
2022-11-24T07:42:27.571Z,7.40
2022-11-24T07:46:29.314Z,7.40
2022-11-24T07:50:31.076Z,7.50
2022-11-24T07:54:33.175Z,7.40
2022-11-24T07:58:38.526Z,7.50
2022-11-24T08:02:41.580Z,7.60
2022-11-24T08:06:47.320Z,7.70
2022-11-24T08:10:49.750Z,7.70
2022-11-24T08:14:51.440Z,7.80
2022-11-24T08:18:54.136Z,7.80
2022-11-24T08:23:01.867Z,7.80
2022-11-24T08:27:03.666Z,7.80
2022-11-24T08:31:07.081Z,7.90
2022-11-24T08:35:13.903Z,8.00
2022-11-24T08:39:16.131Z,8.10
2022-11-24T08:43:19.711Z,8.10
2022-11-24T08:47:21.605Z,8.20
2022-11-24T08:51:26.024Z,8.30
2022-11-24T08:55:27.961Z,8.40
2022-11-24T08:59:29.672Z,8.40
2022-11-24T09:03:31.446Z,8.50
2022-11-24T09:07:33.246Z,8.60
2022-11-24T09:11:47.639Z,8.60
2022-11-24T09:15:49.501Z,8.70
2022-11-24T09:19:51.122Z,8.80
2022-11-24T09:23:53.872Z,8.90
2022-11-24T09:27:56.450Z,8.90
2022-11-24T09:32:03.496Z,8.90
2022-11-24T09:36:08.841Z,8.90
2022-11-24T09:40:12.449Z,8.90
2022-11-24T09:44:32.860Z,9.00
2022-11-24T09:48:41.813Z,9.00
2022-11-24T09:52:46.489Z,9.00
2022-11-24T09:56:51.520Z,9.00
2022-11-24T10:00:53.977Z,9.00
2022-11-24T10:05:01.977Z,9.20
2022-11-24T10:09:24.126Z,9.20
2022-11-24T10:13:38.069Z,9.20
2022-11-24T10:17:58.553Z,9.20
2022-11-24T10:22:21.619Z,9.20
2022-11-24T10:26:28.352Z,9.30
2022-11-24T10:30:30.316Z,9.30
2022-11-24T10:34:40.517Z,9.20
2022-11-24T10:38:46.021Z,9.30
2022-11-24T10:42:55.982Z,9.30
2022-11-24T10:46:59.014Z,9.40
2022-11-24T10:51:11.988Z,9.40
2022-11-24T10:55:13.700Z,9.30
2022-11-24T10:59:32.150Z,9.50
2022-11-24T11:03:45.918Z,9.70
2022-11-24T11:09:36.080Z,9.70
2022-11-24T11:12:44.044Z,9.80
2022-11-24T11:21:53.352Z,10.00
2022-11-24T11:26:18.082Z,9.90
2022-11-24T11:34:56.141Z,10.20
2022-11-24T11:48:22.738Z,10.30
2022-11-24T11:56:46.736Z,10.40
2022-11-24T12:00:52.787Z,10.30
2022-11-24T12:05:18.283Z,10.40
2022-11-24T12:09:50.864Z,10.30
2022-11-24T12:14:26.345Z,10.30
2022-11-24T12:19:01.023Z,10.50
2022-11-24T12:23:12.568Z,10.50
2022-11-24T12:27:19.364Z,10.60
2022-11-24T12:31:24.127Z,10.60
2022-11-24T12:35:33.318Z,10.60
2022-11-24T12:39:35.050Z,10.50
2022-11-24T12:43:40.227Z,10.60
2022-11-24T12:47:47.968Z,10.60
2022-11-24T12:51:54.739Z,10.70
2022-11-24T12:56:00.918Z,10.80
2022-11-24T13:00:08.942Z,10.80
2022-11-24T13:04:31.297Z,10.70
2022-11-24T13:08:37.244Z,10.60
2022-11-24T13:12:54.686Z,10.70
2022-11-24T13:21:52.005Z,10.70
2022-11-24T13:26:13.318Z,10.80
2022-11-24T13:30:35.654Z,10.80
2022-11-24T13:34:40.403Z,10.80
2022-11-24T13:39:03.265Z,10.90
2022-11-24T13:43:05.048Z,10.70
2022-11-24T13:47:25.446Z,10.70
2022-11-24T13:51:28.637Z,10.70
2022-11-24T13:55:35.116Z,10.70
2022-11-24T13:59:39.855Z,10.70
2022-11-24T14:03:55.342Z,10.60
2022-11-24T14:08:06.499Z,10.60
2022-11-24T14:12:19.392Z,10.50
2022-11-24T14:16:30.100Z,10.40
2022-11-24T14:20:31.840Z,10.40
2022-11-24T14:24:39.859Z,10.30
2022-11-24T14:28:44.644Z,10.20
2022-11-24T14:32:56.821Z,10.10
2022-11-24T14:37:12.623Z,10.10
2022-11-24T14:41:16.727Z,10.00
2022-11-24T14:45:58.480Z,10.00
2022-11-24T14:49:51.924Z,9.90
2022-11-24T14:53:56.519Z,9.80
2022-11-24T14:58:00.189Z,9.80
2022-11-24T15:02:03.790Z,9.60
2022-11-24T15:06:12.417Z,9.60
2022-11-24T15:10:24.815Z,9.60
2022-11-24T15:14:33.438Z,9.50
2022-11-24T15:18:43.035Z,9.50
2022-11-24T15:22:45.369Z,9.40
2022-11-24T15:26:48.614Z,9.30
2022-11-24T15:30:50.273Z,9.20
2022-11-24T15:34:52.956Z,9.10
2022-11-24T15:38:55.825Z,9.00
2022-11-24T15:43:00.809Z,9.00
2022-11-24T15:47:08.531Z,8.90
2022-11-24T15:51:13.313Z,8.70
2022-11-24T15:55:20.670Z,8.70
2022-11-24T15:59:23.981Z,8.60
2022-11-24T16:08:06.090Z,8.50
2022-11-24T16:12:12.067Z,8.50
2022-11-24T16:16:20.389Z,8.40
2022-11-24T16:20:32.236Z,8.30
2022-11-24T16:24:41.203Z,8.30
2022-11-24T16:28:48.758Z,8.30
2022-11-24T16:32:54.383Z,8.30
2022-11-24T16:36:59.813Z,8.30
2022-11-24T16:41:01.568Z,8.30
2022-11-24T16:45:06.885Z,8.20
2022-11-24T16:49:13.164Z,8.20
2022-11-24T16:53:18.603Z,8.20
2022-11-24T16:57:25.122Z,8.10
2022-11-24T17:01:28.644Z,8.10
2022-11-24T17:05:36.956Z,8.10
2022-11-24T17:09:40.896Z,8.20
2022-11-24T17:13:43.330Z,8.10
2022-11-24T17:18:08.503Z,8.10
2022-11-24T17:22:07.614Z,8.10
2022-11-24T17:26:22.825Z,8.00
2022-11-24T17:30:26.245Z,8.00
2022-11-24T17:34:29.085Z,8.00
2022-11-24T17:38:34.121Z,8.10
2022-11-24T17:42:43.979Z,7.90
2022-11-24T17:46:47.851Z,8.00
2022-11-24T17:51:02.174Z,8.00
2022-11-24T17:55:07.818Z,8.00
2022-11-24T17:59:11.694Z,8.10
2022-11-24T18:03:16.895Z,8.20
2022-11-24T18:07:19.988Z,8.10
2022-11-24T18:11:31.094Z,8.10
2022-11-24T18:15:35.943Z,8.10
2022-11-24T18:19:46.068Z,8.20
2022-11-24T18:28:16.581Z,8.20
2022-11-24T18:32:20.114Z,8.10
2022-11-24T18:36:29.966Z,8.20
2022-11-24T18:40:39.310Z,8.20
2022-11-24T18:44:42.340Z,8.30
2022-11-24T18:48:44.515Z,8.20
2022-11-24T18:52:46.392Z,8.20
2022-11-24T18:56:56.686Z,8.30
2022-11-24T19:01:15.393Z,8.20
2022-11-24T19:05:17.991Z,8.20
2022-11-24T19:09:25.976Z,8.20
2022-11-24T19:13:33.756Z,8.30
2022-11-24T19:17:39.151Z,8.20
2022-11-24T19:21:46.309Z,8.20
2022-11-24T19:25:48.547Z,8.20
2022-11-24T19:29:54.549Z,8.20
2022-11-24T19:34:01.228Z,8.10
2022-11-24T19:38:04.719Z,8.20
2022-11-24T19:42:08.311Z,8.20
2022-11-24T19:46:14.004Z,8.10
2022-11-24T19:50:18.085Z,8.10
2022-11-24T19:54:21.178Z,8.00
2022-11-24T19:58:23.006Z,8.00
2022-11-24T20:02:25.164Z,7.90
2022-11-24T20:06:41.669Z,7.90
2022-11-24T20:10:46.060Z,7.90
2022-11-24T20:14:48.702Z,7.90
2022-11-24T20:18:52.897Z,7.80
2022-11-24T20:23:03.677Z,7.80
2022-11-24T20:27:07.523Z,7.80
2022-11-24T20:31:12.869Z,7.70
2022-11-24T20:35:21.999Z,7.60
2022-11-24T20:39:28.489Z,7.70
2022-11-24T20:43:37.056Z,7.60
2022-11-24T20:47:39.257Z,7.50
2022-11-24T20:51:43.913Z,7.50
2022-11-24T20:55:47.263Z,7.50
2022-11-24T20:59:53.086Z,7.50
2022-11-24T21:03:58.919Z,7.40
2022-11-24T21:08:00.780Z,7.40
2022-11-24T21:12:04.556Z,7.40
2022-11-24T21:16:16.048Z,7.40
2022-11-24T21:20:18.002Z,7.50
2022-11-24T21:24:26.265Z,7.50
2022-11-24T21:28:28.470Z,7.50
2022-11-24T21:32:34.940Z,7.40
2022-11-24T21:36:54.508Z,7.40
2022-11-24T21:41:04.841Z,7.40
2022-11-24T21:45:13.252Z,7.50
2022-11-24T21:54:34.787Z,7.50
2022-11-24T22:03:37.701Z,7.40
2022-11-24T22:07:40.769Z,7.30
2022-11-24T22:11:42.774Z,7.30
2022-11-24T22:15:44.428Z,7.30
2022-11-24T22:19:46.064Z,7.40
2022-11-24T22:23:50.814Z,7.30
2022-11-24T22:28:00.228Z,7.30
2022-11-24T22:32:01.992Z,7.30
2022-11-24T22:36:04.170Z,7.30
2022-11-24T22:40:06.094Z,7.40
2022-11-24T22:44:07.740Z,7.50
2022-11-24T22:48:09.396Z,7.50
2022-11-24T22:52:10.962Z,7.60
2022-11-24T22:56:12.529Z,7.70
2022-11-24T23:00:14.427Z,7.70
2022-11-24T23:04:16.079Z,8.00
2022-11-24T23:08:17.665Z,8.00
2022-11-24T23:12:19.337Z,8.00
2022-11-24T23:16:21.301Z,8.00
2022-11-24T23:20:23.050Z,8.00
2022-11-24T23:24:24.718Z,8.00
2022-11-24T23:28:26.339Z,7.90
2022-11-24T23:32:28.294Z,8.00
2022-11-24T23:36:30.891Z,8.10
2022-11-24T23:40:32.520Z,8.20
2022-11-24T23:44:34.228Z,8.20
2022-11-24T23:48:36.402Z,8.30
2022-11-24T23:52:38.118Z,8.30
2022-11-24T23:56:39.754Z,8.30
